Adams, North Carolina
Current Conditions -  °F | °C
As of 8:35 AM on Wednesday 26 Nov 2014 (Local Time) from KTNB Reporting Station
Light Snow Light Snow  
Wind Chill: 33°   Ceiling: Unl
Heat Index: 33°   Visibility: 1.5mi
Dew Point: 33°   Wind: 3mph
Humidity: 100%   Direction: 290°WNW
Pressure: 29.97"   Gusts: NA
Location:  36.2085°N, 81.6605°W
Report Text: KTNB 261335Z AUTO 29003KT 1 1/2SM -SN SCT008 01/01 A2997 RMK AO2 P0005 T00050005
Loading
Personal Weather Stations






























Interactive Weather Map New forecast layout! Learn more

10-Day Weather Forecast

Advertisements
Track Severe Weather on mobile